GVNP

Details ICAO GVNP (RAI)
Name PRAIA INTERNATIONAL
Region Cape Verde
Timezone Atlantic/Cape_Verde (UTC-1.0)
Plans Departing 97
Arriving 104
Stats Elevation 230 ft / 70 m (AMSL)
Location 14.932581° -23.489194°
Runways 2
Magnetic Variation 9.884° W
Sunrise 2017-12-16 07:53:38 UTC / 2017-12-16 06:53:38 Local
Sunset 2017-12-16 19:08:22 UTC / 2017-12-16 18:08:22 Local
Advertisement - Login to hide

Runways

ID Width Length Bearing (true) Bearing (mag) Surface Threshold Offset Overrun Length
03L 98 ft / 30 m 4,188 ft / 1,277 m 21.85° 31.73° Asphalt 0 ft / 0 m 0 ft / 0 m
03R 148 ft / 45 m 6,906 ft / 2,105 m 21.78° 31.66° Asphalt 650 ft / 198 m 0 ft / 0 m
21L 148 ft / 45 m 6,906 ft / 2,105 m 201.78° 211.66° Asphalt 0 ft / 0 m 0 ft / 0 m
21R 98 ft / 30 m 4,188 ft / 1,277 m 201.86° 211.74° Asphalt 0 ft / 0 m 0 ft / 0 m

Map

Weather


0- 5 10 15 20 25 30 35+ Temperature / ° C

Clouds and Precipitation
Forecast for 2017-12-17 00:00 UTC. Updated 43 minutes ago

Ground ~20,000 ft ~40,000 ft Winds

METAR

GVNP 162200Z 06016KT 6000 FEW016 BKN100 24/16 Q1018 NOSIG

TAF

TAF GVNP 161700Z 1618/1724 05016KT 9000 FEW018

Frequencies

Tower 118.20 MHz PRAIA TWR
Approach 118.20 MHz PRAIA APP
Warning: Do not use this data for real-world aviation or navigation. No guarantee of current accuracy is given.